Share

West Decatur, PA (16878)

Clearfield-Lawrence (KFIG) Elev 1516 ft | 41.05 °N, 78.41 °W | Change Station

Current weather conditions updated 4 minutes ago

Clear
Clear
60 °F
Feels Like 60 °F
N
8
Wind Variable Wind from NE
Sunrise 6:28 AM
Sunset 7:57 PM
Moon Waning Gibbous

Tomorrow is forecast to be nearly the same temperature as today.

Pressure 30.29 in
Visibility 10.0 miles
Clouds Clear
Dew Point 20 °F
Humidity 21%
Rainfall 0.00 in
Snow Depth Not available.
UV 1 out of 16
Pollen 10.80 out of 12
Air Quality Not available.
Flu Activity Local Activity
METAR KFIG 192254Z AUTO 05007KT 10SM CLR 16/M07 A3027 RMK AO2 SLP256 T01561067

More Conditions Fewer Conditions

Pressure 30.29 in
Visibility 10.0 miles
Clouds Clear
Dew Point 20 °F
Humidity 21%
Rainfall 0.00 in
Snow Depth Not available.
UV 1 out of 16
Pollen 10.80 out of 12
Air Quality Not available.
Flu Activity Local Activity
METAR KFIG 192254Z AUTO 05007KT 10SM CLR 16/M07 A3027 RMK AO2 SLP256 T01561067

More Conditions Fewer Conditions

10-Day Weather Forecast

Almanac

Astronomy

Apr. 19, 2014 Rise Set
Actual Time 6:28 AM EDT 7:57 PM EDT
Civil Twilight 5:59 AM EDT 8:26 PM EDT
Nautical Twilight 5:24 AM EDT 9:01 PM EDT
Astronomical Twilight 4:48 AM EDT 9:37 PM EDT
Moon No Moon Rise 9:44 AM EDT
Length of Visible Light 14h 26m
Length of Day
13h 29m
Tomorrow will be 2m 33s longer.
Waning Gibbous, 76% of the Moon is Illuminated
Today
Waning Gibbous
Apr 22
Last Quarter
Apr 29
New
May 6
First Quarter
May 14
Full

Today's Extremes

State Highs State Lows

Community

  • Happy Easter WU friends!!!!
    Happy Easter WU friends!!!!
  • Skirting the Horizon
    Skirting the Horizon
  • Piriapolis
    Piriapolis
  • A Glorious Morning
    A Glorious Morning
  • Tender Rays Of Hope
    Tender Rays Of Hope

WunderPhotos

Upload Photos

1,702,944 photos uploaded!

WunderBlogs® & News

Nearby

Snow Depth

Station Depth Elevation
No new snow has been reported.

Coastal Water Temperatures

Place Temperature
No Stations Reporting

Earthquake Activity

City Distance Mag. Time & Date
No recent earthquake activity has been reported nearby.
Minimum magnitude displayed is 2.5.

Nearby Weather Stations

Station Location Temp. Dew Point Humidity Wind Precip. Elev Updated Type
RAWS KENNEDY PRESERVE PA, Penfield, PA 60 °F 16 °F 18% NE  at  8 mph 0.00 in / hr 2121 ft 5:08 PM EDT MADIS
Tyrone, Tyrone, PA 61.6 °F 26 °F 26% SE  at  3.0 mph 0.00 in / hr 1138 ft 6:47 PM EDT Normal
Stormstown, Port Matilda, PA 58.6 °F 26 °F 29% East  at  6.0 mph 0.00 in / hr 1375 ft 6:58 PM EDT Rapid Fire
Grays Woods/Marywood, Port Matilda, PA 59.0 °F 24 °F 26% ESE  at  2.0 mph 0.00 in / hr 1391 ft 6:55 PM EDT Normal
Graysdale, Port Matilda, PA 58.9 °F 25 °F 27% SSE  at  0.0 mph 0.00 in / hr 1350 ft 6:54 PM EDT Normal

Show More Stations Show Fewer Stations

What do you think?

We're not finished. Please let us know what you like, what you don't like, and what you are still missing.